createdAt,value
2022-08-03T00:00:11.799Z,9.681106
2022-08-03T00:01:11.796Z,9.681252
2022-08-03T00:02:11.793Z,9.681196
2022-08-03T00:03:11.809Z,9.681139
2022-08-03T00:04:11.771Z,9.681143
2022-08-03T00:05:11.754Z,9.680208
2022-08-03T00:06:11.748Z,9.680588
2022-08-03T00:07:11.774Z,9.681160
2022-08-03T00:08:11.736Z,9.681385
2022-08-03T00:09:11.738Z,9.681229
2022-08-03T00:10:11.726Z,9.681453
2022-08-03T00:11:11.716Z,9.680994
2022-08-03T00:12:11.701Z,9.681428
2022-08-03T00:13:11.719Z,9.681117
2022-08-03T00:14:11.691Z,9.681242
2022-08-03T00:15:16.491Z,9.681479
2022-08-03T00:16:12.679Z,9.681453
2022-08-03T00:17:11.674Z,9.681254
2022-08-03T00:18:11.665Z,9.681136
2022-08-03T00:19:11.678Z,9.681138
2022-08-03T00:20:11.663Z,9.681180
2022-08-03T00:21:11.646Z,9.681229
2022-08-03T00:22:11.632Z,9.681291
2022-08-03T00:23:11.630Z,9.681160
2022-08-03T00:24:11.621Z,9.681163
2022-08-03T00:25:11.632Z,9.681076
2022-08-03T00:26:11.610Z,9.680955
2022-08-03T00:27:11.612Z,9.681028
2022-08-03T00:28:12.597Z,9.681178
2022-08-03T00:29:11.607Z,9.680946
2022-08-03T00:30:11.614Z,9.681076
2022-08-03T00:31:13.445Z,9.681134
2022-08-03T00:32:11.615Z,9.681169
2022-08-03T00:33:11.556Z,9.681122
2022-08-03T00:34:11.565Z,9.681125
2022-08-03T00:35:18.275Z,9.681034
2022-08-03T00:36:12.538Z,9.681055
2022-08-03T00:37:11.534Z,9.681295
2022-08-03T00:38:11.542Z,9.681299
2022-08-03T00:39:11.515Z,9.681258
2022-08-03T00:40:11.505Z,9.681239
2022-08-03T00:41:11.494Z,9.681198
2022-08-03T00:42:11.492Z,9.681240
2022-08-03T00:43:11.488Z,9.681119
2022-08-03T00:44:11.496Z,9.681102
2022-08-03T00:45:11.473Z,9.681179
2022-08-03T00:46:11.477Z,9.681080
2022-08-03T00:47:11.459Z,9.681038
2022-08-03T00:48:32.185Z,9.681183
2022-08-03T00:49:12.509Z,9.681272
2022-08-03T00:50:11.425Z,9.681205
2022-08-03T00:51:11.422Z,9.681225
2022-08-03T00:52:11.421Z,9.681165
2022-08-03T00:53:11.445Z,9.680878
2022-08-03T00:54:11.403Z,9.681214
2022-08-03T00:55:11.394Z,9.681170
2022-08-03T00:56:11.423Z,9.681259
2022-08-03T00:57:11.391Z,9.681361
2022-08-03T00:58:11.378Z,9.681209
2022-08-03T00:59:11.390Z,9.681162
2022-08-03T01:00:11.360Z,9.681104
2022-08-03T01:01:11.439Z,9.680814
2022-08-03T01:02:11.343Z,9.681001
2022-08-03T01:03:11.347Z,9.681048
2022-08-03T01:04:11.358Z,9.681048
2022-08-03T01:05:11.327Z,9.681303
2022-08-03T01:06:11.310Z,9.681273
2022-08-03T01:07:11.328Z,9.681511
2022-08-03T01:08:11.299Z,9.681449
2022-08-03T01:09:11.297Z,9.680532
2022-08-03T01:10:11.311Z,9.680549
2022-08-03T01:11:11.289Z,9.680801
2022-08-03T01:12:11.271Z,9.681296
2022-08-03T01:14:00.961Z,9.681400
2022-08-03T01:14:18.745Z,9.681260
2022-08-03T01:15:12.276Z,9.681179
2022-08-03T01:16:11.268Z,9.681102
2022-08-03T01:17:11.262Z,9.681013
2022-08-03T01:18:11.238Z,9.681168
2022-08-03T01:19:11.229Z,9.681340
2022-08-03T01:20:11.218Z,9.681458
2022-08-03T01:21:11.226Z,9.681238
2022-08-03T01:22:11.206Z,9.680946
2022-08-03T01:23:11.196Z,9.681199
2022-08-03T01:24:11.186Z,9.681062
2022-08-03T01:25:11.185Z,9.681178
2022-08-03T01:26:11.187Z,9.681163
2022-08-03T01:27:11.193Z,9.681215
2022-08-03T01:28:11.385Z,9.681524
2022-08-03T01:29:11.154Z,9.681563
2022-08-03T01:30:11.165Z,9.681548
2022-08-03T01:31:11.161Z,9.681230
2022-08-03T01:32:59.859Z,9.680943
2022-08-03T01:33:12.121Z,9.681409
2022-08-03T01:34:12.219Z,9.681434
2022-08-03T01:35:11.110Z,9.681840
2022-08-03T01:36:11.127Z,9.681659
2022-08-03T01:37:11.098Z,9.681417
2022-08-03T01:38:11.089Z,9.681436
2022-08-03T01:39:11.084Z,9.681182
2022-08-03T01:40:11.075Z,9.681280
2022-08-03T01:41:11.096Z,9.680634
2022-08-03T01:42:11.072Z,9.681179
2022-08-03T01:43:11.049Z,9.681727
2022-08-03T01:44:29.713Z,9.681483
2022-08-03T01:45:12.050Z,9.681209
2022-08-03T01:46:11.021Z,9.680920
2022-08-03T01:47:11.042Z,9.680988
2022-08-03T01:48:11.018Z,9.680753
2022-08-03T01:49:11.055Z,9.680870
2022-08-03T01:50:11.008Z,9.681339
2022-08-03T01:51:10.993Z,9.681508
2022-08-03T01:52:11.011Z,9.681121
2022-08-03T01:53:10.985Z,9.681180
2022-08-03T01:54:10.999Z,9.681259
2022-08-03T01:55:10.976Z,9.681458
2022-08-03T01:56:10.966Z,9.681360
2022-08-03T01:57:10.983Z,9.680992
2022-08-03T01:58:10.948Z,9.681409
2022-08-03T01:59:10.963Z,9.681217
2022-08-03T02:00:10.968Z,9.681266
2022-08-03T02:01:10.995Z,9.681924
2022-08-03T02:02:31.937Z,9.681848
2022-08-03T02:03:11.923Z,9.681752
2022-08-03T02:04:10.907Z,9.681133
2022-08-03T02:05:11.381Z,9.681031
2022-08-03T02:07:00.215Z,9.681031
2022-08-03T02:07:11.893Z,9.681031
2022-08-03T02:08:10.887Z,9.681042
2022-08-03T02:09:10.886Z,9.681198
2022-08-03T02:10:10.886Z,9.681452
2022-08-03T02:11:10.867Z,9.680907
2022-08-03T02:12:10.858Z,9.680907
2022-08-03T02:13:10.845Z,9.680907
2022-08-03T02:14:10.834Z,9.681910
2022-08-03T02:15:10.852Z,9.681523
2022-08-03T02:16:10.814Z,9.681259
2022-08-03T02:17:10.819Z,9.681911
2022-08-03T02:18:10.818Z,9.680639
2022-08-03T02:19:10.801Z,9.680710
2022-08-03T02:20:10.794Z,9.680851
2022-08-03T02:21:11.151Z,9.681149
2022-08-03T02:22:10.807Z,9.681239
2022-08-03T02:23:10.783Z,9.681027
2022-08-03T02:24:10.775Z,9.681129
2022-08-03T02:25:10.768Z,9.680929
2022-08-03T02:26:10.776Z,9.681204
2022-08-03T02:27:10.775Z,9.681240
2022-08-03T02:28:10.739Z,9.681118
2022-08-03T02:29:10.733Z,9.681075
2022-08-03T02:30:10.726Z,9.681008
2022-08-03T02:31:10.742Z,9.680797
2022-08-03T02:32:10.718Z,9.680982
2022-08-03T02:33:10.713Z,9.680729
2022-08-03T02:34:10.713Z,9.680198
2022-08-03T02:35:10.690Z,9.680341
2022-08-03T02:36:10.689Z,9.680753
2022-08-03T02:37:10.707Z,9.680454
2022-08-03T02:38:10.674Z,9.681062
2022-08-03T02:39:10.690Z,9.680596
2022-08-03T02:40:10.676Z,9.681058
2022-08-03T02:41:10.680Z,9.681134
2022-08-03T02:42:12.036Z,9.681232
2022-08-03T02:43:10.634Z,9.680927
2022-08-03T02:44:10.630Z,9.680519
2022-08-03T02:45:10.704Z,9.681131
2022-08-03T02:46:10.619Z,9.680818
2022-08-03T02:47:10.638Z,9.681104
2022-08-03T02:48:10.618Z,9.681119
2022-08-03T02:49:40.729Z,9.681293
2022-08-03T02:50:11.670Z,9.681273
2022-08-03T02:51:10.580Z,9.681802
2022-08-03T02:52:12.574Z,9.681711
2022-08-03T02:53:10.582Z,9.681679
2022-08-03T02:54:10.564Z,9.681289
2022-08-03T02:55:10.550Z,9.681121
2022-08-03T02:56:10.538Z,9.681065
2022-08-03T02:57:10.529Z,9.680957
2022-08-03T02:58:10.549Z,9.681222
2022-08-03T02:59:10.543Z,9.680972
2022-08-03T03:00:10.513Z,9.681294
2022-08-03T03:01:10.583Z,9.681149
2022-08-03T03:02:10.530Z,9.681385
2022-08-03T03:03:10.510Z,9.681148
2022-08-03T03:04:10.488Z,9.681067
2022-08-03T03:05:55.137Z,9.681093
2022-08-03T03:06:11.471Z,9.681148
2022-08-03T03:07:10.471Z,9.680979
2022-08-03T03:08:17.634Z,9.681121
2022-08-03T03:09:10.457Z,9.681975
2022-08-03T03:10:10.436Z,9.682057
2022-08-03T03:11:10.472Z,9.682944
2022-08-03T03:12:10.434Z,9.681344
2022-08-03T03:13:10.420Z,9.681101
2022-08-03T03:14:10.416Z,9.681346
2022-08-03T03:15:10.411Z,9.681427
2022-08-03T03:16:10.395Z,9.681783
2022-08-03T03:17:10.413Z,9.682034
2022-08-03T03:18:10.381Z,9.682261
2022-08-03T03:19:10.383Z,9.682077
2022-08-03T03:20:10.370Z,9.681855
2022-08-03T03:21:10.366Z,9.680787
2022-08-03T03:22:10.416Z,9.680787
2022-08-03T03:23:10.353Z,9.681479
2022-08-03T03:24:10.341Z,9.680682
2022-08-03T03:25:10.345Z,9.680495
2022-08-03T03:26:10.328Z,9.680765
2022-08-03T03:27:10.329Z,9.680754
2022-08-03T03:28:10.338Z,9.680939
2022-08-03T03:29:10.303Z,9.681643
2022-08-03T03:30:10.293Z,9.680693
2022-08-03T03:31:10.297Z,9.680734
2022-08-03T03:32:10.302Z,9.680559
2022-08-03T03:33:10.283Z,9.680425
2022-08-03T03:34:10.288Z,9.680423
2022-08-03T03:35:10.258Z,9.680662
2022-08-03T03:36:10.255Z,9.680630
2022-08-03T03:37:10.252Z,9.680638
2022-08-03T03:38:10.248Z,9.681094
2022-08-03T03:39:15.150Z,9.681556
2022-08-03T03:40:11.223Z,9.681688
2022-08-03T03:41:10.226Z,9.681383
2022-08-03T03:42:10.224Z,9.681543
2022-08-03T03:43:10.209Z,9.681522
2022-08-03T03:44:10.202Z,9.681329
2022-08-03T03:45:10.211Z,9.680805
2022-08-03T03:46:10.191Z,9.680949
2022-08-03T03:47:10.177Z,9.681150
2022-08-03T03:48:10.174Z,9.681066
2022-08-03T03:49:10.246Z,9.681070
2022-08-03T03:50:10.149Z,9.681164
2022-08-03T03:51:10.142Z,9.681167
2022-08-03T03:52:10.143Z,9.680938
2022-08-03T03:53:10.132Z,9.681048
2022-08-03T03:54:10.122Z,9.681079
2022-08-03T03:55:10.126Z,9.681109
2022-08-03T03:56:10.098Z,9.681007
2022-08-03T03:57:10.095Z,9.680982
2022-08-03T03:58:10.093Z,9.680981
2022-08-03T03:59:10.100Z,9.681058
2022-08-03T04:00:10.079Z,9.681262
2022-08-03T04:01:10.124Z,9.680941
2022-08-03T04:02:10.120Z,9.680813
2022-08-03T04:03:10.057Z,9.681005
2022-08-03T04:04:10.058Z,9.681223
2022-08-03T04:05:10.038Z,9.681119
2022-08-03T04:06:10.037Z,9.680855
2022-08-03T04:07:10.031Z,9.681220
2022-08-03T04:08:10.037Z,9.681056
2022-08-03T04:09:10.005Z,9.681163
2022-08-03T04:10:14.703Z,9.680964
2022-08-03T04:11:09.984Z,9.680936
2022-08-03T04:12:10.068Z,9.680960
2022-08-03T04:13:09.964Z,9.680919
2022-08-03T04:14:09.995Z,9.680901
2022-08-03T04:15:09.953Z,9.680931
2022-08-03T04:16:09.948Z,9.680899
2022-08-03T04:17:09.958Z,9.680956
2022-08-03T04:18:09.941Z,9.681190
2022-08-03T04:19:09.931Z,9.680951
2022-08-03T04:20:09.919Z,9.680763
2022-08-03T04:21:09.908Z,9.681053
2022-08-03T04:22:09.972Z,9.681088
2022-08-03T04:23:15.725Z,9.681099
2022-08-03T04:24:10.879Z,9.680977
2022-08-03T04:25:09.886Z,9.681139
2022-08-03T04:26:09.902Z,9.681179
2022-08-03T04:27:09.861Z,9.680958
2022-08-03T04:28:29.777Z,9.680943
2022-08-03T04:29:10.847Z,9.681062
2022-08-03T04:30:09.835Z,9.680871
2022-08-03T04:31:09.842Z,9.680912
2022-08-03T04:32:09.907Z,9.681159
2022-08-03T04:33:09.818Z,9.681130
2022-08-03T04:34:09.834Z,9.680935
2022-08-03T04:35:09.829Z,9.681134
2022-08-03T04:36:09.792Z,9.681150
2022-08-03T04:37:09.789Z,9.681058
2022-08-03T04:38:09.779Z,9.680991
2022-08-03T04:39:09.771Z,9.680872
2022-08-03T04:40:09.756Z,9.681046
2022-08-03T04:41:09.775Z,9.681088
2022-08-03T04:42:09.751Z,9.680969
2022-08-03T04:43:09.750Z,9.681129
2022-08-03T04:44:09.735Z,9.681217
2022-08-03T04:45:09.727Z,9.681027
2022-08-03T04:46:09.715Z,9.680998
2022-08-03T04:47:09.739Z,9.681303
2022-08-03T04:48:09.703Z,9.681008
2022-08-03T04:49:09.723Z,9.680872
2022-08-03T04:50:12.917Z,9.681100
2022-08-03T04:51:09.683Z,9.680844
2022-08-03T04:52:09.739Z,9.680994
2022-08-03T04:53:09.683Z,9.681096
2022-08-03T04:54:09.661Z,9.681240
2022-08-03T04:55:09.654Z,9.681137
2022-08-03T04:56:09.644Z,9.681171
2022-08-03T04:57:09.756Z,9.681143
2022-08-03T04:58:09.627Z,9.681126
2022-08-03T04:59:09.645Z,9.681176
2022-08-03T05:00:09.622Z,9.680773
2022-08-03T05:01:09.607Z,9.680784
2022-08-03T05:02:09.779Z,9.680975
2022-08-03T05:03:20.347Z,9.681067
2022-08-03T05:04:10.609Z,9.681048
2022-08-03T05:05:09.584Z,9.680685
2022-08-03T05:06:11.400Z,9.680581
2022-08-03T05:07:12.303Z,9.680950
2022-08-03T05:08:11.185Z,9.681175
2022-08-03T05:09:09.584Z,9.681000
2022-08-03T05:10:15.911Z,9.681298
2022-08-03T05:11:10.547Z,9.681010
2022-08-03T05:12:09.593Z,9.680744
2022-08-03T05:13:09.533Z,9.680695
2022-08-03T05:14:09.521Z,9.681157
2022-08-03T05:15:09.534Z,9.681034
2022-08-03T05:16:09.511Z,9.680944
2022-08-03T05:17:09.509Z,9.681116
2022-08-03T05:18:13.666Z,9.681166
2022-08-03T05:19:09.505Z,9.680668
2022-08-03T05:20:09.487Z,9.680786
2022-08-03T05:21:09.493Z,9.680914
2022-08-03T05:22:09.540Z,9.680926
2022-08-03T05:23:09.466Z,9.680806
2022-08-03T05:24:09.452Z,9.680732
2022-08-03T05:25:09.458Z,9.681007
2022-08-03T05:26:10.501Z,9.681016
2022-08-03T05:27:09.454Z,9.681112
2022-08-03T05:28:09.431Z,9.681317
2022-08-03T05:29:09.429Z,9.681034
2022-08-03T05:30:30.885Z,9.681151
2022-08-03T05:31:10.433Z,9.680777
2022-08-03T05:32:09.447Z,9.681016
2022-08-03T05:33:09.401Z,9.681094
2022-08-03T05:34:09.395Z,9.681077
2022-08-03T05:36:00.849Z,9.681097
2022-08-03T05:36:10.380Z,9.681424
2022-08-03T05:37:09.396Z,9.687234
2022-08-03T05:38:09.370Z,9.695654
2022-08-03T05:39:09.363Z,9.699375
2022-08-03T05:40:09.346Z,9.702379
2022-08-03T05:41:22.442Z,9.703696
2022-08-03T05:42:09.393Z,9.703696
2022-08-03T05:43:09.348Z,9.703696
2022-08-03T05:44:09.356Z,9.680799
2022-08-03T05:45:09.320Z,9.680441
2022-08-03T05:46:13.049Z,9.680441
2022-08-03T05:47:09.305Z,9.680441
2022-08-03T05:48:09.300Z,9.680569
2022-08-03T05:49:09.363Z,9.680902
2022-08-03T05:50:09.283Z,9.680661
2022-08-03T05:51:09.283Z,9.680558
2022-08-03T05:52:12.947Z,9.680571
2022-08-03T05:53:10.265Z,9.680320
2022-08-03T05:54:09.257Z,9.681587
2022-08-03T05:55:09.253Z,9.681483
2022-08-03T05:56:13.601Z,9.681431
2022-08-03T05:57:10.265Z,9.681848
2022-08-03T05:58:09.240Z,9.681739
2022-08-03T05:59:35.898Z,9.681745
2022-08-03T06:00:10.222Z,9.681806
2022-08-03T06:01:09.238Z,9.681416
2022-08-03T06:02:09.257Z,9.681524
2022-08-03T06:03:09.204Z,9.681507
2022-08-03T06:04:09.189Z,9.681445
2022-08-03T06:05:09.185Z,9.681511
2022-08-03T06:06:09.195Z,9.681285
2022-08-03T06:07:09.192Z,9.680736
2022-08-03T06:08:09.184Z,9.680750
2022-08-03T06:09:09.154Z,9.680754
2022-08-03T06:10:35.257Z,9.681010
2022-08-03T06:11:10.143Z,9.680846
2022-08-03T06:12:12.397Z,9.680158
2022-08-03T06:13:10.190Z,9.680134
2022-08-03T06:14:09.119Z,9.680325
2022-08-03T06:15:11.318Z,9.680822
2022-08-03T06:16:09.115Z,9.681595
2022-08-03T06:17:09.109Z,9.680951
2022-08-03T06:18:09.089Z,9.681115
2022-08-03T06:19:09.103Z,9.681058
2022-08-03T06:20:09.077Z,9.681259
2022-08-03T06:21:14.316Z,9.680986
2022-08-03T06:22:09.064Z,9.681247
2022-08-03T06:23:15.937Z,9.681329
2022-08-03T06:24:10.082Z,9.681590
2022-08-03T06:25:12.671Z,9.681658
2022-08-03T06:26:09.038Z,9.681962
2022-08-03T06:27:09.039Z,9.681592
2022-08-03T06:28:15.024Z,9.680902
2022-08-03T06:29:10.054Z,9.680909
2022-08-03T06:30:09.044Z,9.680784
2022-08-03T06:31:09.005Z,9.680615
2022-08-03T06:32:09.005Z,9.680672
2022-08-03T06:33:09.010Z,9.681011
2022-08-03T06:34:33.790Z,9.680983
2022-08-03T06:35:10.016Z,9.681130
2022-08-03T06:36:08.974Z,9.681117
2022-08-03T06:37:08.978Z,9.680947
2022-08-03T06:38:08.964Z,9.681344
2022-08-03T06:39:08.962Z,9.681450
2022-08-03T06:40:08.948Z,9.681580
2022-08-03T06:41:08.972Z,9.681727
2022-08-03T06:42:09.856Z,9.681455
2022-08-03T06:43:12.553Z,9.681105
2022-08-03T06:44:08.929Z,9.681410
2022-08-03T06:45:08.917Z,9.681202
2022-08-03T06:46:08.920Z,9.681324
2022-08-03T06:47:08.926Z,9.681391
2022-08-03T06:48:08.910Z,9.680953
2022-08-03T06:49:08.956Z,9.680892
2022-08-03T06:50:16.539Z,9.680898
2022-08-03T06:51:09.890Z,9.680949
2022-08-03T06:52:08.876Z,9.681178
2022-08-03T06:53:08.863Z,9.681456
2022-08-03T06:54:08.880Z,9.681106
2022-08-03T06:55:08.867Z,9.681324
2022-08-03T06:56:08.852Z,9.681466
2022-08-03T06:57:08.847Z,9.681211
2022-08-03T06:58:08.837Z,9.681183
2022-08-03T06:59:08.826Z,9.681229
2022-08-03T07:00:12.307Z,9.681437
2022-08-03T07:01:08.855Z,9.681284
2022-08-03T07:02:08.819Z,9.681167
2022-08-03T07:03:08.820Z,9.681160
2022-08-03T07:04:08.808Z,9.681179
2022-08-03T07:05:08.810Z,9.680941
2022-08-03T07:06:08.778Z,9.681181
2022-08-03T07:07:08.790Z,9.681384
2022-08-03T07:08:08.781Z,9.681294
2022-08-03T07:09:08.767Z,9.680912
2022-08-03T07:10:08.778Z,9.681094
2022-08-03T07:11:08.762Z,9.681055
2022-08-03T07:12:08.753Z,9.680964
2022-08-03T07:13:08.752Z,9.681035
2022-08-03T07:14:08.752Z,9.680970
2022-08-03T07:15:08.774Z,9.681121
2022-08-03T07:16:13.905Z,9.681221
2022-08-03T07:17:11.689Z,9.681361
2022-08-03T07:18:08.713Z,9.681096
2022-08-03T07:19:08.708Z,9.681004
2022-08-03T07:20:08.710Z,9.680941
2022-08-03T07:21:08.773Z,9.680855
2022-08-03T07:22:08.683Z,9.681022
2022-08-03T07:23:08.692Z,9.681042
2022-08-03T07:24:08.678Z,9.680894
2022-08-03T07:25:08.656Z,9.681004
2022-08-03T07:26:08.658Z,9.681095
2022-08-03T07:27:08.675Z,9.681189
2022-08-03T07:28:08.644Z,9.681124
2022-08-03T07:29:14.875Z,9.681108
2022-08-03T07:30:08.627Z,9.680984
2022-08-03T07:31:08.617Z,9.680881
2022-08-03T07:32:08.631Z,9.680618
2022-08-03T07:33:08.625Z,9.680577
2022-08-03T07:34:08.599Z,9.681270
2022-08-03T07:35:08.768Z,9.681124
2022-08-03T07:36:08.574Z,9.680828
2022-08-03T07:37:08.622Z,9.680968
2022-08-03T07:38:08.574Z,9.680943
2022-08-03T07:39:17.566Z,9.680823
2022-08-03T07:40:09.556Z,9.680795
2022-08-03T07:41:08.550Z,9.681110
2022-08-03T07:42:08.580Z,9.681278
2022-08-03T07:43:08.563Z,9.681195
2022-08-03T07:44:08.536Z,9.680950
2022-08-03T07:45:08.519Z,9.680978
2022-08-03T07:46:08.533Z,9.681032
2022-08-03T07:47:09.147Z,9.681068
2022-08-03T07:48:12.104Z,9.680959
2022-08-03T07:49:08.563Z,9.680903
2022-08-03T07:50:08.878Z,9.680874
2022-08-03T07:51:08.499Z,9.681148
2022-08-03T07:52:08.468Z,9.681067
2022-08-03T07:53:08.467Z,9.680822
2022-08-03T07:54:08.478Z,9.680938
2022-08-03T07:55:08.458Z,9.680937
2022-08-03T07:56:11.219Z,9.680899
2022-08-03T07:57:08.468Z,9.680996
2022-08-03T07:58:08.444Z,9.681159
2022-08-03T07:59:08.454Z,9.680963
2022-08-03T08:00:08.425Z,9.681035
2022-08-03T08:01:08.446Z,9.681374
2022-08-03T08:02:08.436Z,9.681320
2022-08-03T08:03:08.411Z,9.681396
2022-08-03T08:04:08.401Z,9.681067
2022-08-03T08:05:08.421Z,9.680716
2022-08-03T08:06:08.390Z,9.681052
2022-08-03T08:07:08.381Z,9.680904
2022-08-03T08:08:08.382Z,9.680882
2022-08-03T08:09:08.370Z,9.680860
2022-08-03T08:10:08.387Z,9.681032
2022-08-03T08:11:08.360Z,9.681156
2022-08-03T08:12:14.906Z,9.681042
2022-08-03T08:13:09.338Z,9.680914
2022-08-03T08:14:08.335Z,9.680998
2022-08-03T08:15:08.326Z,9.680847
2022-08-03T08:16:08.349Z,9.680925
2022-08-03T08:17:08.345Z,9.681038
2022-08-03T08:18:08.301Z,9.681073
2022-08-03T08:19:08.314Z,9.681077
2022-08-03T08:20:08.285Z,9.681022
2022-08-03T08:21:08.709Z,9.681052
2022-08-03T08:22:08.274Z,9.680978
2022-08-03T08:23:19.989Z,9.680949
2022-08-03T08:24:11.441Z,9.681284
2022-08-03T08:25:09.250Z,9.681234
2022-08-03T08:26:08.237Z,9.680926
2022-08-03T08:27:08.247Z,9.681017
2022-08-03T08:28:30.890Z,9.680923
2022-08-03T08:29:09.246Z,9.680705
2022-08-03T08:30:11.548Z,9.680994
2022-08-03T08:31:08.244Z,9.680817
2022-08-03T08:32:08.237Z,9.680782
2022-08-03T08:33:08.726Z,9.680961
2022-08-03T08:34:09.248Z,9.680871
2022-08-03T08:35:08.203Z,9.680997
2022-08-03T08:36:11.988Z,9.681097
2022-08-03T08:37:09.186Z,9.680876
2022-08-03T08:38:08.170Z,9.681153
2022-08-03T08:39:08.167Z,9.680929
2022-08-03T08:40:08.158Z,9.681161
2022-08-03T08:41:08.137Z,9.680966
2022-08-03T08:42:08.165Z,9.681008
2022-08-03T08:43:08.143Z,9.680768
2022-08-03T08:44:08.140Z,9.680635
2022-08-03T08:45:08.117Z,9.681112
2022-08-03T08:46:08.129Z,9.680765
2022-08-03T08:47:08.107Z,9.680777
2022-08-03T08:48:08.550Z,9.681177
2022-08-03T08:49:08.132Z,9.680832
2022-08-03T08:50:14.850Z,9.680738
2022-08-03T08:51:09.077Z,9.680857
2022-08-03T08:52:25.356Z,9.680966
2022-08-03T08:53:09.811Z,9.680881
2022-08-03T08:54:09.071Z,9.680897
2022-08-03T08:55:08.049Z,9.680736
2022-08-03T08:56:08.075Z,9.681035
2022-08-03T08:57:21.258Z,9.681111
2022-08-03T08:58:09.028Z,9.681000
2022-08-03T08:59:08.029Z,9.680983
2022-08-03T09:00:08.022Z,9.680758
2022-08-03T09:01:08.087Z,9.680664
2022-08-03T09:02:08.007Z,9.680859
2022-08-03T09:03:08.003Z,9.681001
2022-08-03T09:04:08.000Z,9.680794
2022-08-03T09:05:08.010Z,9.680822
2022-08-03T09:06:07.999Z,9.680791
2022-08-03T09:07:19.661Z,9.680876
2022-08-03T09:08:08.954Z,9.681206
2022-08-03T09:09:07.996Z,9.681114
2022-08-03T09:10:12.712Z,9.681044
2022-08-03T09:11:08.948Z,9.680950
2022-08-03T09:12:35.290Z,9.680789
2022-08-03T09:13:08.936Z,9.680488
2022-08-03T09:14:07.935Z,9.680897
2022-08-03T09:15:17.033Z,9.681027
2022-08-03T09:16:08.916Z,9.680793
2022-08-03T09:17:07.901Z,9.680173
2022-08-03T09:18:07.895Z,9.679935
2022-08-03T09:19:07.892Z,9.680559
2022-08-03T09:20:07.889Z,9.681858
2022-08-03T09:21:29.652Z,9.680870
2022-08-03T09:22:08.907Z,9.680474
2022-08-03T09:23:24.939Z,9.680689
2022-08-03T09:24:16.519Z,9.681233
2022-08-03T09:25:23.780Z,9.681233
2022-08-03T09:26:09.155Z,9.681233
2022-08-03T09:27:07.853Z,9.681005
2022-08-03T09:28:07.842Z,9.681442
2022-08-03T09:29:13.153Z,9.681402
2022-08-03T09:30:19.000Z,9.680920
2022-08-03T09:31:07.822Z,9.680473
2022-08-03T09:32:07.844Z,9.680714
2022-08-03T09:33:08.373Z,9.680629
2022-08-03T09:34:07.793Z,9.680881
2022-08-03T09:35:09.481Z,9.680742
2022-08-03T09:36:07.776Z,9.680577
2022-08-03T09:37:07.775Z,9.680858
2022-08-03T09:38:12.637Z,9.680890
2022-08-03T09:39:08.763Z,9.680836
2022-08-03T09:40:08.384Z,9.680939
2022-08-03T09:41:07.765Z,9.680889
2022-08-03T09:42:07.743Z,9.680699
2022-08-03T09:43:07.745Z,9.681174
2022-08-03T09:44:07.724Z,9.681111
2022-08-03T09:45:07.754Z,9.681148
2022-08-03T09:46:07.791Z,9.681414
2022-08-03T09:47:07.720Z,9.681455
2022-08-03T09:48:07.709Z,9.681307
2022-08-03T09:49:07.763Z,9.681228
2022-08-03T09:50:07.690Z,9.681336
2022-08-03T09:51:14.207Z,9.681506
2022-08-03T09:52:31.765Z,9.681251
2022-08-03T09:53:08.681Z,9.681181
2022-08-03T09:54:13.534Z,9.681240
2022-08-03T09:55:23.394Z,9.681229
2022-08-03T09:56:36.006Z,9.681308
2022-08-03T09:57:08.662Z,9.681283
2022-08-03T09:58:07.642Z,9.681100
2022-08-03T09:59:07.667Z,9.681425
2022-08-03T10:00:08.468Z,9.681001
2022-08-03T10:01:07.687Z,9.680958
2022-08-03T10:02:08.636Z,9.681163
2022-08-03T10:03:07.617Z,9.681203
2022-08-03T10:04:07.598Z,9.681101
2022-08-03T10:05:07.607Z,9.681611
2022-08-03T10:06:07.598Z,9.681598
2022-08-03T10:07:07.596Z,9.681122
2022-08-03T10:08:07.613Z,9.681224
2022-08-03T10:09:07.565Z,9.681791
2022-08-03T10:10:29.925Z,9.681494
2022-08-03T10:11:07.555Z,9.681311
2022-08-03T10:12:07.544Z,9.680570
2022-08-03T10:13:07.545Z,9.680788
2022-08-03T10:14:07.551Z,9.681324
2022-08-03T10:15:07.537Z,9.681068
2022-08-03T10:16:21.971Z,9.680794
2022-08-03T10:17:08.520Z,9.680861
2022-08-03T10:18:07.503Z,9.681251
2022-08-03T10:19:07.528Z,9.681037
2022-08-03T10:20:07.490Z,9.681118
2022-08-03T10:21:07.520Z,9.681170
2022-08-03T10:22:07.486Z,9.681123
2022-08-03T10:23:07.472Z,9.681054
2022-08-03T10:24:07.456Z,9.681049
2022-08-03T10:25:07.497Z,9.681305
2022-08-03T10:26:07.447Z,9.681331
2022-08-03T10:27:07.486Z,9.681318
2022-08-03T10:28:07.435Z,9.681348
2022-08-03T10:29:07.441Z,9.681228
2022-08-03T10:30:07.432Z,9.680938
2022-08-03T10:31:07.457Z,9.681205
2022-08-03T10:32:07.416Z,9.680984
2022-08-03T10:33:15.308Z,9.681028
2022-08-03T10:34:08.431Z,9.681155
2022-08-03T10:35:19.114Z,9.680978
2022-08-03T10:36:08.433Z,9.681281
2022-08-03T10:37:07.405Z,9.681207
2022-08-03T10:38:07.402Z,9.680474
2022-08-03T10:39:16.110Z,9.680951
2022-08-03T10:40:07.368Z,9.680787
2022-08-03T10:41:07.351Z,9.679596
2022-08-03T10:42:13.506Z,9.680626
2022-08-03T10:43:07.369Z,9.681151
2022-08-03T10:44:07.332Z,9.681155
2022-08-03T10:45:07.326Z,9.681054
2022-08-03T10:46:07.322Z,9.681182
2022-08-03T10:47:07.333Z,9.681331
2022-08-03T10:48:07.307Z,9.681220
2022-08-03T10:49:07.390Z,9.681454
2022-08-03T10:50:07.287Z,9.681061
2022-08-03T10:51:07.283Z,9.680769
2022-08-03T10:52:13.382Z,9.680793
2022-08-03T10:53:07.272Z,9.680974
2022-08-03T10:54:07.274Z,9.681179
2022-08-03T10:55:07.824Z,9.681149
2022-08-03T10:56:07.243Z,9.681190
2022-08-03T10:57:14.490Z,9.681208
2022-08-03T10:58:11.258Z,9.680970
2022-08-03T10:59:08.768Z,9.680915
2022-08-03T11:00:07.447Z,9.681083
2022-08-03T11:01:07.269Z,9.681229
2022-08-03T11:02:07.235Z,9.681157
2022-08-03T11:03:07.270Z,9.681098
2022-08-03T11:04:11.046Z,9.681014
2022-08-03T11:05:07.197Z,9.681278
2022-08-03T11:06:07.195Z,9.681300
2022-08-03T11:07:07.190Z,9.681692
2022-08-03T11:08:07.182Z,9.681190
2022-08-03T11:09:07.185Z,9.680843
2022-08-03T11:10:10.497Z,9.680788
2022-08-03T11:11:07.193Z,9.681192
2022-08-03T11:12:07.149Z,9.681468
2022-08-03T11:13:07.177Z,9.681845
2022-08-03T11:14:07.139Z,9.681585
2022-08-03T11:15:07.284Z,9.681004
2022-08-03T11:16:10.915Z,9.681223
2022-08-03T11:17:07.131Z,9.681380
2022-08-03T11:18:11.536Z,9.681805
2022-08-03T11:19:07.129Z,9.681384
2022-08-03T11:20:07.097Z,9.681319
2022-08-03T11:21:07.101Z,9.681576
2022-08-03T11:22:07.083Z,9.681775
2022-08-03T11:23:07.081Z,9.681919
2022-08-03T11:24:07.249Z,9.681623
2022-08-03T11:25:07.093Z,9.681438
2022-08-03T11:26:07.086Z,9.681334
2022-08-03T11:27:07.051Z,9.681076
2022-08-03T11:28:07.069Z,9.681093
2022-08-03T11:29:07.037Z,9.681340
2022-08-03T11:30:07.020Z,9.681850
2022-08-03T11:31:07.019Z,9.681618
2022-08-03T11:32:07.042Z,9.680851
2022-08-03T11:33:07.014Z,9.681352
2022-08-03T11:34:07.006Z,9.681238
2022-08-03T11:35:07.013Z,9.681004
2022-08-03T11:36:06.989Z,9.680779
2022-08-03T11:37:06.988Z,9.681191
2022-08-03T11:38:06.986Z,9.681067
2022-08-03T11:39:06.969Z,9.681283
2022-08-03T11:40:06.962Z,9.681183
2022-08-03T11:41:06.960Z,9.681440
2022-08-03T11:42:06.977Z,9.681778
2022-08-03T11:43:06.948Z,9.681501
2022-08-03T11:44:06.948Z,9.681392